Share

Ulcinj, Montenegro

Podgorica (LYPG) Elev 141 ft | 42.36 °N, 19.25 °E | Change Station

Current weather conditions updated 6 minutes ago

Light Rain
Light Rain
50 °F
Feels Like 50 °F
N
1
Wind Variable Wind from Variable
Sunrise 5:56 AM
Sunset 7:28 PM
Moon Waning Gibbous

Today is forecast to be nearly the same temperature as yesterday. Occasional showers possible.

Pressure 29.74 in
Visibility 4.3 miles
Clouds Few 1300 ft
Scattered Clouds 3300 ft
Overcast 8000 ft
Dew Point 48 °F
Humidity 94%
Rainfall 0.00 in
Snow Depth Not available.
UV 1 out of 16
Pollen Not available.
Air Quality Not available.
Flu Activity Not available.
METAR LYPG 190630Z VRB01KT 7000 -RA FEW013 SCT033 OVC080 10/09 Q1007 NOSIG

More Conditions Fewer Conditions

Pressure 29.74 in
Visibility 4.3 miles
Clouds Few 1300 ft
Scattered Clouds 3300 ft
Overcast 8000 ft
Dew Point 48 °F
Humidity 94%
Rainfall 0.00 in
Snow Depth Not available.
UV 1 out of 16
Pollen Not available.
Air Quality Not available.
Flu Activity Not available.
METAR LYPG 190630Z VRB01KT 7000 -RA FEW013 SCT033 OVC080 10/09 Q1007 NOSIG

More Conditions Fewer Conditions

10-Day Weather Forecast

Almanac

Astronomy

Apr. 19, 2014 Rise Set
Actual Time 5:56 AM CEST 7:28 PM CEST
Civil Twilight 5:27 AM CEST 7:57 PM CEST
Nautical Twilight 4:52 AM CEST 8:33 PM CEST
Astronomical Twilight 4:15 AM CEST 9:10 PM CEST
Moon 11:54 PM CEST 8:55 AM CEST
Length of Visible Light 14h 29m
Length of Day
13h 31m
Tomorrow will be 2m 38s longer.
Waning Gibbous, 82% of the Moon is Illuminated
Today
Waning Gibbous
Apr 22
Last Quarter
Apr 29
New
May 6
First Quarter
May 14
Full

Community

  • Sunset Silhouettes
    Sunset Silhouettes
  • FL sunset Perico Isle
    FL sunset Perico Isle
  • Cloudy spring view
    Cloudy spring view
  • Old barn
    Old barn
  • What's for Lunch?
    What's for Lunch?

WunderPhotos

Upload Photos

1,702,653 photos uploaded!

WunderBlogs® & News

Nearby

Snow Depth

Not available.

Coastal Water Temperatures

Place Temperature
No Stations Reporting

Earthquake Activity

City Distance Mag. Time & Date
No recent earthquake activity has been reported nearby.
Minimum magnitude displayed is 2.5.

Nearby Weather Stations

There are no personal weather stations in this area.

What do you think?

We're not finished. Please let us know what you like, what you don't like, and what you are still missing.